createdAt,value
2023-04-10T00:00:22.211Z,15.52
2023-04-10T00:05:14.007Z,15.55
2023-04-10T00:10:06.034Z,15.88
2023-04-10T00:14:58.420Z,16.95
2023-04-10T00:19:50.049Z,17.77
2023-04-10T00:24:41.804Z,16.35
2023-04-10T00:29:35.704Z,18.45
2023-04-10T00:34:28.660Z,16.55
2023-04-10T00:39:20.567Z,16.88
2023-04-10T00:44:13.723Z,18.33
2023-04-10T00:49:06.435Z,19.13
2023-04-10T00:54:01.375Z,18.75
2023-04-10T00:58:53.051Z,19.85
2023-04-10T01:03:45.695Z,17.65
2023-04-10T01:08:47.763Z,17.77
2023-04-10T01:14:12.355Z,15.88
2023-04-10T01:19:19.765Z,23.42
2023-04-10T01:24:36.055Z,22.13
2023-04-10T01:29:31.056Z,21.38
2023-04-10T01:34:27.997Z,21.65
2023-04-10T01:39:21.386Z,20.67
2023-04-10T01:44:15.282Z,17.67
2023-04-10T01:49:07.332Z,20.48
2023-04-10T01:54:00.779Z,23.73
2023-04-10T01:58:52.721Z,22.95
2023-04-10T02:03:44.562Z,23.25
2023-04-10T02:09:22.109Z,25.77
2023-04-10T02:14:18.239Z,25.90
2023-04-10T02:19:11.245Z,24.10
2023-04-10T02:24:03.137Z,25.92
2023-04-10T02:28:54.907Z,26.25
2023-04-10T02:33:46.689Z,24.05
2023-04-10T02:38:38.301Z,23.90
2023-04-10T02:43:29.939Z,24.58
2023-04-10T02:48:22.000Z,21.20
2023-04-10T02:53:16.133Z,25.42
2023-04-10T02:58:08.145Z,20.58
2023-04-10T03:02:59.969Z,26.50
2023-04-10T03:07:51.809Z,24.42
2023-04-10T03:12:43.433Z,26.23
2023-04-10T03:17:35.157Z,22.70
2023-04-10T03:22:27.719Z,26.27
2023-04-10T03:27:19.302Z,25.73
2023-04-10T03:32:10.974Z,20.80
2023-04-10T03:37:03.454Z,23.80
2023-04-10T03:41:55.075Z,22.38
2023-04-10T03:46:46.745Z,21.55
2023-04-10T03:51:38.384Z,21.92
2023-04-10T03:56:30.130Z,19.63
2023-04-10T04:01:22.534Z,18.15
2023-04-10T04:06:14.206Z,18.95
2023-04-10T04:11:06.285Z,20.73
2023-04-10T04:15:57.892Z,19.70
2023-04-10T04:20:49.490Z,15.80
2023-04-10T04:25:41.227Z,16.67
2023-04-10T04:30:32.916Z,14.45
2023-04-10T04:35:24.705Z,15.35
2023-04-10T04:40:16.344Z,15.63
2023-04-10T04:45:08.699Z,14.65
2023-04-10T04:50:00.417Z,13.85
2023-04-10T04:54:52.047Z,13.73
2023-04-10T04:59:43.773Z,11.38
2023-04-10T05:04:35.423Z,12.50
2023-04-10T05:09:27.069Z,10.30
2023-04-10T05:14:18.675Z,12.13
2023-04-10T05:19:10.493Z,11.88
2023-04-10T05:24:02.128Z,13.02
2023-04-10T05:28:53.990Z,10.07
2023-04-10T05:33:46.025Z,9.80
2023-04-10T05:38:37.624Z,10.13
2023-04-10T05:43:29.302Z,9.70
2023-04-10T05:48:20.956Z,8.15
2023-04-10T05:53:13.993Z,10.43
2023-04-10T05:58:05.670Z,6.88
2023-04-10T06:02:57.462Z,6.57
2023-04-10T06:07:49.165Z,6.03
2023-04-10T06:12:40.987Z,5.40
2023-04-10T06:17:32.716Z,6.35
2023-04-10T06:22:24.380Z,7.95
2023-04-10T06:27:16.390Z,4.80
2023-04-10T06:32:08.028Z,4.78
2023-04-10T06:36:59.690Z,4.85
2023-04-10T06:41:51.275Z,5.40
2023-04-10T06:46:42.999Z,3.33
2023-04-10T06:51:34.659Z,3.70
2023-04-10T06:56:27.143Z,4.78
2023-04-10T07:01:18.953Z,3.55
2023-04-10T07:06:11.262Z,3.10
2023-04-10T07:11:02.939Z,4.22
2023-04-10T07:15:55.756Z,3.00
2023-04-10T07:20:50.075Z,3.67
2023-04-10T07:25:42.925Z,3.30
2023-04-10T07:30:34.516Z,4.57
2023-04-10T07:35:27.066Z,2.72
2023-04-10T07:40:19.023Z,2.22
2023-04-10T07:45:11.095Z,2.40
2023-04-10T07:50:02.806Z,3.42
2023-04-10T07:54:54.434Z,2.80
2023-04-10T07:59:46.541Z,1.80
2023-04-10T08:04:38.320Z,1.98
2023-04-10T08:09:30.673Z,2.17
2023-04-10T08:14:22.263Z,2.92
2023-04-10T08:19:13.946Z,2.25
2023-04-10T08:24:06.741Z,2.63
2023-04-10T08:29:00.056Z,1.42
2023-04-10T08:33:52.187Z,2.50
2023-04-10T08:38:44.925Z,3.58
2023-04-10T08:43:36.576Z,3.92
2023-04-10T08:48:38.219Z,1.65
2023-04-10T08:53:32.005Z,3.63
2023-04-10T08:58:24.678Z,4.40
2023-04-10T09:03:16.533Z,3.40
2023-04-10T09:08:09.701Z,4.35
2023-04-10T09:13:01.348Z,2.95
2023-04-10T09:17:56.741Z,3.80
2023-04-10T09:22:48.398Z,4.30
2023-04-10T09:27:40.396Z,2.20
2023-04-10T09:32:42.286Z,1.55
2023-04-10T09:37:35.398Z,2.50
2023-04-10T09:42:34.967Z,4.13
2023-04-10T09:47:27.279Z,3.72
2023-04-10T09:52:24.846Z,6.40
2023-04-10T09:57:19.313Z,4.20
2023-04-10T10:02:13.447Z,6.47
2023-04-10T10:07:05.539Z,5.32
2023-04-10T10:11:58.582Z,8.43
2023-04-10T10:16:56.853Z,6.95
2023-04-10T10:21:48.845Z,7.45
2023-04-10T10:26:40.844Z,5.00
2023-04-10T10:31:35.380Z,6.32
2023-04-10T10:36:27.397Z,9.27
2023-04-10T10:41:27.720Z,9.80
2023-04-10T10:46:43.520Z,16.17
2023-04-10T10:51:50.146Z,5.55
2023-04-10T10:56:41.799Z,5.80
2023-04-10T11:01:33.579Z,5.78
2023-04-10T11:06:52.302Z,3.28
2023-04-10T11:11:59.292Z,1.48
2023-04-10T11:16:51.026Z,3.50
2023-04-10T11:22:07.492Z,8.43
2023-04-10T11:26:59.953Z,3.75
2023-04-10T11:31:59.674Z,3.35
2023-04-10T11:36:51.370Z,3.67
2023-04-10T11:41:45.056Z,1.20
2023-04-10T11:46:38.142Z,1.38
2023-04-10T11:51:31.158Z,0.35
2023-04-10T11:56:22.863Z,0.17
2023-04-10T12:01:14.836Z,0.50
2023-04-10T12:06:14.515Z,1.27
2023-04-10T12:11:07.410Z,0.57
2023-04-10T12:16:01.791Z,0.68
2023-04-10T12:20:56.506Z,1.08
2023-04-10T12:25:48.183Z,1.50
2023-04-10T12:30:55.215Z,0.82
2023-04-10T12:35:46.890Z,0.73
2023-04-10T12:40:40.562Z,1.75
2023-04-10T12:45:45.427Z,2.50
2023-04-10T12:50:47.791Z,2.13
2023-04-10T12:55:40.214Z,0.65
2023-04-10T13:00:31.852Z,1.85
2023-04-10T13:05:25.241Z,1.75
2023-04-10T13:10:17.046Z,1.95
2023-04-10T13:15:08.932Z,1.92
2023-04-10T13:20:00.628Z,0.45
2023-04-10T13:24:52.458Z,1.80
2023-04-10T13:29:44.236Z,5.15
2023-04-10T13:34:36.149Z,2.00
2023-04-10T13:39:31.579Z,0.63
2023-04-10T13:44:23.550Z,2.42
2023-04-10T13:49:20.330Z,3.15
2023-04-10T13:54:12.405Z,2.05
2023-04-10T13:59:04.728Z,2.10
2023-04-10T14:03:56.970Z,1.42
2023-04-10T14:08:48.773Z,1.10
2023-04-10T14:13:40.620Z,1.83
2023-04-10T14:18:32.448Z,1.38
2023-04-10T14:23:24.033Z,2.55
2023-04-10T14:28:18.827Z,2.55
2023-04-10T14:33:11.032Z,1.88
2023-04-10T14:38:03.412Z,2.80
2023-04-10T14:42:55.103Z,3.80
2023-04-10T14:47:47.618Z,1.65
2023-04-10T14:52:39.320Z,1.40
2023-04-10T14:57:31.247Z,2.88
2023-04-10T15:02:22.981Z,2.33
2023-04-10T15:07:14.869Z,3.60
2023-04-10T15:12:07.409Z,1.00
2023-04-10T15:16:59.081Z,1.77
2023-04-10T15:21:51.002Z,2.80
2023-04-10T15:26:46.154Z,2.10
2023-04-10T15:31:37.997Z,4.65
2023-04-10T15:36:29.999Z,1.50
2023-04-10T15:41:23.068Z,3.47
2023-04-10T15:46:15.970Z,2.90
2023-04-10T15:51:07.874Z,2.85
2023-04-10T15:55:59.546Z,1.63
2023-04-10T16:00:51.306Z,1.83
2023-04-10T16:05:42.992Z,2.10
2023-04-10T16:10:35.801Z,3.65
2023-04-10T16:15:28.650Z,1.08
2023-04-10T16:20:20.412Z,4.47
2023-04-10T16:25:12.102Z,0.22
2023-04-10T16:30:05.996Z,0.55
2023-04-10T16:34:57.862Z,0.90
2023-04-10T16:39:49.469Z,0.35
2023-04-10T16:44:41.166Z,0.20
2023-04-10T16:49:32.762Z,0.10
2023-04-10T16:54:24.508Z,0.38
2023-04-10T16:59:16.162Z,0.57
2023-04-10T17:04:09.319Z,1.38
2023-04-10T17:09:01.287Z,0.35
2023-04-10T17:13:53.616Z,1.90
2023-04-10T17:18:45.345Z,1.50
2023-04-10T17:23:37.359Z,1.20
2023-04-10T17:28:29.086Z,2.72
2023-04-10T17:33:21.900Z,1.38
2023-04-10T17:38:13.576Z,4.30
2023-04-10T17:43:05.413Z,1.67
2023-04-10T17:47:57.102Z,0.80
2023-04-10T17:52:48.906Z,1.63
2023-04-10T17:57:40.565Z,1.13
2023-04-10T18:02:32.382Z,0.93
2023-04-10T18:07:24.080Z,0.40
2023-04-10T18:12:15.811Z,2.28
2023-04-10T18:17:07.613Z,1.25
2023-04-10T18:21:59.594Z,0.60
2023-04-10T18:26:51.229Z,0.52
2023-04-10T18:31:42.893Z,0.05
2023-04-10T18:36:34.476Z,0.35
2023-04-10T18:41:26.099Z,0.13
2023-04-10T18:46:17.740Z,0.63
2023-04-10T18:51:12.847Z,0.82
2023-04-10T18:56:04.614Z,1.67
2023-04-10T19:00:56.431Z,0.80
2023-04-10T19:05:48.312Z,1.23
2023-04-10T19:10:42.199Z,1.30
2023-04-10T19:15:33.940Z,1.55
2023-04-10T19:20:50.701Z,1.45
2023-04-10T19:25:37.748Z,1.70
2023-04-10T19:30:29.562Z,1.02
2023-04-10T19:35:22.688Z,1.77
2023-04-10T19:40:14.382Z,11.25
2023-04-10T19:45:06.636Z,6.03
2023-04-10T19:49:58.322Z,0.73
2023-04-10T19:54:50.165Z,0.80
2023-04-10T19:59:41.812Z,0.70
2023-04-10T20:04:33.615Z,0.20
2023-04-10T20:09:25.745Z,0.45
2023-04-10T20:14:17.390Z,0.95
2023-04-10T20:19:08.992Z,0.38
2023-04-10T20:24:01.132Z,0.75
2023-04-10T20:28:53.587Z,1.70
2023-04-10T20:33:45.917Z,0.70
2023-04-10T20:38:37.561Z,1.70
2023-04-10T20:43:29.157Z,2.60
2023-04-10T20:48:20.877Z,0.65
2023-04-10T20:53:13.333Z,0.77
2023-04-10T20:58:05.918Z,0.73
2023-04-10T21:02:58.121Z,1.75
2023-04-10T21:07:49.871Z,0.13
2023-04-10T21:12:41.564Z,0.55
2023-04-10T21:17:33.417Z,0.00
2023-04-10T21:22:26.997Z,0.10
2023-04-10T21:27:19.657Z,0.20
2023-04-10T21:32:11.614Z,0.60
2023-04-10T21:37:03.267Z,0.00
2023-04-10T21:41:54.964Z,1.38
2023-04-10T21:46:46.789Z,0.40
2023-04-10T21:51:40.769Z,0.88
2023-04-10T21:56:33.036Z,1.08
2023-04-10T22:01:24.898Z,0.85
2023-04-10T22:06:16.508Z,0.73
2023-04-10T22:11:08.579Z,0.38
2023-04-10T22:16:03.613Z,0.40
2023-04-10T22:20:55.426Z,0.50
2023-04-10T22:25:47.040Z,1.75
2023-04-10T22:30:38.876Z,1.38
2023-04-10T22:35:30.921Z,1.73
2023-04-10T22:40:22.895Z,1.50
2023-04-10T22:45:15.637Z,0.38
2023-04-10T22:50:07.710Z,1.88
2023-04-10T22:54:59.411Z,3.80
2023-04-10T22:59:51.158Z,0.35
2023-04-10T23:04:42.836Z,1.15
2023-04-10T23:09:34.472Z,1.13
2023-04-10T23:14:26.357Z,0.50
2023-04-10T23:19:18.821Z,1.00
2023-04-10T23:24:10.608Z,3.60
2023-04-10T23:29:02.366Z,2.85
2023-04-10T23:33:56.236Z,1.40
2023-04-10T23:38:47.973Z,3.28
2023-04-10T23:43:39.648Z,3.03
2023-04-10T23:48:32.004Z,2.92
2023-04-10T23:53:23.676Z,3.13
2023-04-10T23:58:15.509Z,3.35
